createdAt,value
2023-06-19T00:00:16.897Z,16.49
2023-06-19T00:02:46.494Z,16.47
2023-06-19T00:05:14.538Z,16.42
2023-06-19T00:07:41.931Z,16.34
2023-06-19T00:10:09.678Z,16.31
2023-06-19T00:12:37.676Z,16.24
2023-06-19T00:15:05.874Z,16.24
2023-06-19T00:17:38.794Z,16.21
2023-06-19T00:20:08.075Z,16.21
2023-06-19T00:22:35.477Z,16.19
2023-06-19T00:25:03.391Z,16.12
2023-06-19T00:27:31.946Z,16.10
2023-06-19T00:30:03.484Z,16.07
2023-06-19T00:32:47.539Z,16.04
2023-06-19T00:35:16.486Z,16.01
2023-06-19T00:37:46.966Z,15.97
2023-06-19T00:40:21.544Z,15.95
2023-06-19T00:42:49.549Z,15.91
2023-06-19T00:45:17.301Z,15.90
2023-06-19T00:47:46.923Z,15.89
2023-06-19T00:50:14.681Z,15.84
2023-06-19T00:52:42.136Z,15.82
2023-06-19T00:55:10.687Z,15.82
2023-06-19T00:57:39.168Z,15.81
2023-06-19T01:00:08.429Z,15.79
2023-06-19T01:02:36.992Z,15.75
2023-06-19T01:05:06.589Z,15.75
2023-06-19T01:07:41.967Z,15.71
2023-06-19T01:10:18.086Z,15.66
2023-06-19T01:12:52.014Z,15.67
2023-06-19T01:15:21.156Z,15.66
2023-06-19T01:17:50.219Z,15.60
2023-06-19T01:20:19.562Z,15.52
2023-06-19T01:22:48.349Z,15.43
2023-06-19T01:25:15.931Z,15.42
2023-06-19T01:27:43.861Z,15.38
2023-06-19T01:30:13.475Z,15.42
2023-06-19T01:32:49.179Z,15.44
2023-06-19T01:35:22.662Z,15.44
2023-06-19T01:37:54.093Z,15.42
2023-06-19T01:40:26.123Z,15.40
2023-06-19T01:42:56.673Z,15.36
2023-06-19T01:45:25.122Z,15.34
2023-06-19T01:47:52.616Z,15.35
2023-06-19T01:50:20.207Z,15.33
2023-06-19T01:52:47.706Z,15.32
2023-06-19T01:55:16.952Z,15.32
2023-06-19T01:57:46.938Z,15.31
2023-06-19T02:00:14.817Z,15.29
2023-06-19T02:02:43.629Z,15.28
2023-06-19T02:05:12.574Z,15.21
2023-06-19T02:07:40.125Z,15.17
2023-06-19T02:10:09.257Z,15.14
2023-06-19T02:12:39.983Z,15.12
2023-06-19T02:15:09.021Z,15.11
2023-06-19T02:17:37.131Z,15.15
2023-06-19T02:20:10.032Z,15.18
2023-06-19T02:22:37.353Z,15.16
2023-06-19T02:25:05.701Z,15.22
2023-06-19T02:27:33.585Z,15.27
2023-06-19T02:30:04.437Z,15.30
2023-06-19T02:32:36.074Z,15.32
2023-06-19T02:35:06.030Z,15.37
2023-06-19T02:37:38.228Z,15.38
2023-06-19T02:40:07.614Z,15.40
2023-06-19T02:42:36.061Z,15.41
2023-06-19T02:45:07.546Z,15.40
2023-06-19T02:47:43.059Z,15.43
2023-06-19T02:50:11.146Z,15.44
2023-06-19T02:52:39.163Z,15.45
2023-06-19T02:55:08.603Z,15.47
2023-06-19T02:57:36.536Z,15.52
2023-06-19T03:00:07.367Z,15.57
2023-06-19T03:02:35.286Z,15.62
2023-06-19T03:05:03.804Z,15.66
2023-06-19T03:07:32.350Z,15.72
2023-06-19T03:10:19.870Z,15.77
2023-06-19T03:12:47.537Z,15.80
2023-06-19T03:15:16.710Z,15.79
2023-06-19T03:17:48.644Z,15.76
2023-06-19T03:20:16.278Z,15.80
2023-06-19T03:22:51.100Z,15.86
2023-06-19T03:25:21.166Z,15.91
2023-06-19T03:27:49.513Z,16.05
2023-06-19T03:30:19.915Z,16.08
2023-06-19T03:32:51.046Z,16.09
2023-06-19T03:35:36.417Z,16.16
2023-06-19T03:38:04.380Z,16.18
2023-06-19T03:40:32.530Z,16.20
2023-06-19T03:43:06.120Z,16.19
2023-06-19T03:45:35.496Z,16.18
2023-06-19T03:48:03.492Z,16.16
2023-06-19T03:50:31.120Z,16.19
2023-06-19T03:52:58.760Z,16.19
2023-06-19T03:55:26.753Z,16.19
2023-06-19T03:57:54.799Z,16.16
2023-06-19T04:00:24.006Z,16.14
2023-06-19T04:02:53.808Z,16.17
2023-06-19T04:05:21.467Z,16.27
2023-06-19T04:07:49.296Z,16.35
2023-06-19T04:10:17.594Z,16.39
2023-06-19T04:12:46.598Z,16.45
2023-06-19T04:15:14.244Z,16.53
2023-06-19T04:17:41.834Z,16.65
2023-06-19T04:20:12.875Z,16.72
2023-06-19T04:22:41.588Z,16.72
2023-06-19T04:25:12.116Z,16.74
2023-06-19T04:27:39.936Z,16.80
2023-06-19T04:30:08.378Z,16.80
2023-06-19T04:32:37.901Z,16.87
2023-06-19T04:35:06.216Z,16.94
2023-06-19T04:37:35.571Z,17.02
2023-06-19T04:40:04.914Z,17.08
2023-06-19T04:42:32.733Z,17.18
2023-06-19T04:47:52.392Z,17.39
2023-06-19T04:50:21.886Z,17.59
2023-06-19T04:52:52.441Z,17.75
2023-06-19T04:55:20.750Z,17.90
2023-06-19T04:57:48.394Z,18.05
2023-06-19T05:00:20.296Z,18.16
2023-06-19T05:02:48.767Z,18.29
2023-06-19T05:05:16.872Z,18.29
2023-06-19T05:07:46.554Z,18.21
2023-06-19T05:10:15.581Z,18.16
2023-06-19T05:12:43.409Z,18.16
2023-06-19T05:15:12.335Z,18.15
2023-06-19T05:17:40.194Z,18.18
2023-06-19T05:20:09.104Z,18.27
2023-06-19T05:22:37.801Z,18.35
2023-06-19T05:25:06.041Z,18.46
2023-06-19T05:27:34.826Z,18.63
2023-06-19T05:30:02.154Z,18.84
2023-06-19T05:32:31.980Z,19.05
2023-06-19T05:34:59.556Z,19.14
2023-06-19T05:37:31.061Z,19.28
2023-06-19T05:39:58.731Z,19.39
2023-06-19T05:42:26.099Z,19.48
2023-06-19T05:44:54.837Z,19.50
2023-06-19T05:47:22.745Z,19.51
2023-06-19T05:49:50.167Z,19.50
2023-06-19T05:52:17.771Z,19.54
2023-06-19T05:54:45.207Z,19.61
2023-06-19T05:57:12.962Z,19.79
2023-06-19T05:59:40.535Z,19.88
2023-06-19T06:02:09.433Z,19.86
2023-06-19T06:04:37.733Z,19.78
2023-06-19T06:07:05.883Z,19.79
2023-06-19T06:09:34.310Z,19.88
2023-06-19T06:12:02.149Z,20.01
2023-06-19T06:14:29.857Z,20.14
2023-06-19T06:16:57.388Z,20.22
2023-06-19T06:19:26.264Z,20.26
2023-06-19T06:21:54.031Z,20.31
2023-06-19T06:24:21.486Z,20.43
2023-06-19T06:26:48.924Z,20.72
2023-06-19T06:29:16.313Z,21.11
2023-06-19T06:31:43.986Z,21.54
2023-06-19T06:34:11.516Z,21.82
2023-06-19T06:36:49.481Z,21.93
2023-06-19T06:39:24.444Z,22.37
2023-06-19T06:41:52.095Z,22.85
2023-06-19T06:44:19.598Z,22.98
2023-06-19T06:46:47.440Z,23.28
2023-06-19T06:49:15.083Z,23.63
2023-06-19T06:51:43.924Z,24.01
2023-06-19T06:54:11.395Z,24.22
2023-06-19T06:56:38.808Z,24.28
2023-06-19T06:59:06.131Z,23.84
2023-06-19T07:01:33.594Z,23.61
2023-06-19T07:04:01.694Z,23.72
2023-06-19T07:06:29.377Z,23.74
2023-06-19T07:08:58.194Z,24.09
2023-06-19T07:11:25.969Z,24.33
2023-06-19T07:13:53.761Z,24.30
2023-06-19T07:16:21.441Z,24.21
2023-06-19T07:18:48.740Z,24.36
2023-06-19T07:21:16.323Z,24.51
2023-06-19T07:23:46.074Z,24.35
2023-06-19T07:26:15.617Z,24.59
2023-06-19T07:28:43.325Z,24.63
2023-06-19T07:31:10.698Z,24.92
2023-06-19T07:33:38.053Z,25.18
2023-06-19T07:36:05.907Z,25.42
2023-06-19T07:38:33.464Z,25.44
2023-06-19T07:41:00.933Z,25.48
2023-06-19T07:43:29.982Z,24.99
2023-06-19T07:45:57.363Z,24.57
2023-06-19T07:48:24.824Z,24.69
2023-06-19T07:50:52.440Z,25.03
2023-06-19T07:53:20.049Z,25.19
2023-06-19T07:55:47.542Z,25.14
2023-06-19T07:58:15.296Z,24.62
2023-06-19T08:00:44.347Z,24.36
2023-06-19T08:03:11.865Z,24.50
2023-06-19T08:05:39.603Z,24.06
2023-06-19T08:08:07.014Z,23.85
2023-06-19T08:10:34.785Z,23.53
2023-06-19T08:13:02.378Z,23.51
2023-06-19T08:15:29.733Z,23.76
2023-06-19T08:17:58.758Z,24.03
2023-06-19T08:20:26.481Z,24.36
2023-06-19T08:22:54.133Z,24.75
2023-06-19T08:25:21.691Z,25.03
2023-06-19T08:27:49.155Z,25.04
2023-06-19T08:30:16.514Z,25.09
2023-06-19T08:32:45.011Z,25.03
2023-06-19T08:35:14.099Z,24.67
2023-06-19T08:37:41.415Z,24.51
2023-06-19T08:40:10.825Z,24.57
2023-06-19T08:42:40.273Z,24.66
2023-06-19T08:45:08.957Z,24.72
2023-06-19T08:47:38.422Z,24.79
2023-06-19T08:50:06.897Z,24.75
2023-06-19T08:52:35.674Z,24.83
2023-06-19T08:55:05.099Z,24.92
2023-06-19T08:57:36.501Z,25.03
2023-06-19T09:00:06.861Z,25.08
2023-06-19T09:02:42.599Z,24.88
2023-06-19T09:05:13.189Z,24.85
2023-06-19T09:07:42.246Z,24.99
2023-06-19T09:10:18.236Z,25.18
2023-06-19T09:12:57.967Z,25.43
2023-06-19T09:15:27.984Z,25.59
2023-06-19T09:18:04.032Z,25.53
2023-06-19T09:20:32.148Z,25.42
2023-06-19T09:23:01.369Z,25.31
2023-06-19T09:25:29.242Z,25.17
2023-06-19T09:27:57.119Z,25.17
2023-06-19T09:30:25.036Z,24.99
2023-06-19T09:32:53.003Z,24.86
2023-06-19T09:35:20.560Z,24.82
2023-06-19T09:37:50.311Z,24.78
2023-06-19T09:40:19.233Z,24.50
2023-06-19T09:42:48.597Z,24.46
2023-06-19T09:45:27.923Z,24.42
2023-06-19T09:47:55.472Z,24.59
2023-06-19T09:50:28.571Z,24.81
2023-06-19T09:52:57.035Z,25.08
2023-06-19T09:55:29.962Z,25.26
2023-06-19T09:57:57.941Z,25.35
2023-06-19T10:00:32.451Z,25.55
2023-06-19T10:03:01.587Z,25.74
2023-06-19T10:05:31.672Z,25.92
2023-06-19T10:08:02.811Z,26.09
2023-06-19T10:10:34.363Z,26.19
2023-06-19T10:13:13.967Z,26.30
2023-06-19T10:15:46.022Z,26.32
2023-06-19T10:18:17.521Z,26.32
2023-06-19T10:20:47.533Z,26.24
2023-06-19T10:23:19.438Z,26.28
2023-06-19T10:25:55.946Z,26.39
2023-06-19T10:28:25.560Z,26.18
2023-06-19T10:30:55.733Z,25.97
2023-06-19T10:33:24.528Z,25.83
2023-06-19T10:35:52.403Z,25.87
2023-06-19T10:38:19.858Z,25.95
2023-06-19T10:40:48.140Z,26.08
2023-06-19T10:43:22.639Z,26.28
2023-06-19T10:45:50.709Z,26.37
2023-06-19T10:48:20.749Z,26.39
2023-06-19T10:50:49.042Z,26.50
2023-06-19T10:53:25.212Z,26.60
2023-06-19T10:55:57.039Z,26.70
2023-06-19T10:58:25.731Z,26.78
2023-06-19T11:00:53.175Z,26.60
2023-06-19T11:03:22.022Z,26.45
2023-06-19T11:05:50.246Z,26.17
2023-06-19T11:08:22.139Z,25.88
2023-06-19T11:10:50.382Z,25.83
2023-06-19T11:13:19.623Z,25.97
2023-06-19T11:15:50.753Z,26.14
2023-06-19T11:18:19.872Z,26.39
2023-06-19T11:20:49.180Z,26.61
2023-06-19T11:23:16.596Z,26.81
2023-06-19T11:25:44.928Z,26.91
2023-06-19T11:28:14.607Z,26.98
2023-06-19T11:30:45.979Z,27.07
2023-06-19T11:33:23.492Z,27.15
2023-06-19T11:35:52.848Z,27.18
2023-06-19T11:38:24.957Z,27.17
2023-06-19T11:40:53.102Z,27.39
2023-06-19T11:43:26.738Z,27.60
2023-06-19T11:46:03.268Z,27.77
2023-06-19T11:48:32.580Z,28.04
2023-06-19T11:51:00.190Z,28.07
2023-06-19T11:53:27.886Z,28.03
2023-06-19T11:55:56.915Z,28.01
2023-06-19T11:58:24.434Z,28.02
2023-06-19T12:00:52.199Z,28.15
2023-06-19T12:03:19.968Z,28.53
2023-06-19T12:05:48.952Z,28.57
2023-06-19T12:08:17.116Z,28.64
2023-06-19T12:10:45.250Z,28.87
2023-06-19T12:13:12.730Z,29.09
2023-06-19T12:15:40.252Z,29.26
2023-06-19T12:18:08.547Z,29.35
2023-06-19T12:20:36.093Z,29.48
2023-06-19T12:23:05.036Z,29.37
2023-06-19T12:25:32.467Z,29.24
2023-06-19T12:28:00.162Z,29.07
2023-06-19T12:30:27.841Z,28.61
2023-06-19T12:32:55.639Z,28.26
2023-06-19T12:35:24.288Z,28.17
2023-06-19T12:37:51.746Z,28.36
2023-06-19T12:40:20.742Z,28.72
2023-06-19T12:42:48.086Z,28.83
2023-06-19T12:45:15.680Z,28.99
2023-06-19T12:47:43.246Z,29.10
2023-06-19T12:50:12.693Z,29.15
2023-06-19T12:52:40.198Z,29.17
2023-06-19T12:55:08.569Z,28.86
2023-06-19T12:57:37.624Z,28.92
2023-06-19T13:00:09.566Z,29.03
2023-06-19T13:02:37.100Z,29.17
2023-06-19T13:05:04.812Z,29.33
2023-06-19T13:07:33.724Z,29.41
2023-06-19T13:10:01.211Z,29.06
2023-06-19T13:12:28.920Z,28.71
2023-06-19T13:14:57.835Z,28.74
2023-06-19T13:17:25.498Z,29.06
2023-06-19T13:19:52.998Z,29.36
2023-06-19T13:22:22.343Z,29.57
2023-06-19T13:24:52.158Z,29.84
2023-06-19T13:27:19.605Z,30.13
2023-06-19T13:29:46.971Z,30.34
2023-06-19T13:32:15.774Z,30.42
2023-06-19T13:34:43.780Z,30.51
2023-06-19T13:37:11.319Z,30.54
2023-06-19T13:39:39.791Z,30.54
2023-06-19T13:42:07.737Z,30.56
2023-06-19T13:44:35.125Z,30.50
2023-06-19T13:47:02.545Z,30.40
2023-06-19T13:49:31.834Z,30.15
2023-06-19T13:51:59.626Z,29.97
2023-06-19T13:54:27.592Z,29.71
2023-06-19T13:56:55.013Z,29.56
2023-06-19T13:59:22.459Z,29.46
2023-06-19T14:01:50.154Z,29.51
2023-06-19T14:04:17.520Z,29.66
2023-06-19T14:06:46.656Z,29.72
2023-06-19T14:09:17.182Z,29.76
2023-06-19T14:11:45.269Z,29.89
2023-06-19T14:14:37.906Z,30.04
2023-06-19T14:17:19.421Z,30.00
2023-06-19T14:20:42.166Z,30.11
2023-06-19T14:23:35.468Z,29.78
2023-06-19T14:26:03.434Z,29.55
2023-06-19T14:28:31.208Z,29.38
2023-06-19T14:30:58.630Z,29.34
2023-06-19T14:33:26.068Z,29.39
2023-06-19T14:35:53.577Z,29.31
2023-06-19T14:38:21.202Z,29.23
2023-06-19T14:40:50.607Z,29.25
2023-06-19T14:43:17.986Z,29.19
2023-06-19T14:45:45.369Z,29.19
2023-06-19T14:48:12.875Z,29.26
2023-06-19T14:50:40.376Z,29.48
2023-06-19T14:53:07.827Z,29.57
2023-06-19T14:55:35.315Z,29.63
2023-06-19T14:58:04.428Z,29.52
2023-06-19T15:00:32.161Z,29.46
2023-06-19T15:02:59.800Z,29.44
2023-06-19T15:05:27.254Z,29.44
2023-06-19T15:07:54.666Z,29.34
2023-06-19T15:10:22.586Z,29.20
2023-06-19T15:12:50.313Z,29.15
2023-06-19T15:15:19.138Z,29.12
2023-06-19T15:17:46.457Z,29.03
2023-06-19T15:20:14.879Z,28.82
2023-06-19T15:22:42.809Z,28.67
2023-06-19T15:25:10.961Z,28.51
2023-06-19T15:27:38.769Z,28.38
2023-06-19T15:30:07.502Z,28.27
2023-06-19T15:32:36.746Z,28.18
2023-06-19T15:35:05.000Z,28.06
2023-06-19T15:37:32.556Z,28.10
2023-06-19T15:40:01.272Z,28.05
2023-06-19T15:42:32.489Z,27.93
2023-06-19T15:45:00.475Z,27.79
2023-06-19T15:47:28.206Z,27.70
2023-06-19T15:49:57.207Z,27.40
2023-06-19T15:52:24.869Z,27.22
2023-06-19T15:54:52.329Z,27.12
2023-06-19T15:57:19.813Z,27.08
2023-06-19T15:59:51.316Z,26.98
2023-06-19T16:02:18.875Z,26.79
2023-06-19T16:04:46.723Z,26.58
2023-06-19T16:07:15.914Z,26.36
2023-06-19T16:09:54.371Z,26.10
2023-06-19T16:12:23.406Z,25.89
2023-06-19T16:14:50.868Z,25.62
2023-06-19T16:17:18.537Z,25.38
2023-06-19T16:19:45.918Z,25.15
2023-06-19T16:22:13.219Z,24.91
2023-06-19T16:24:42.140Z,24.69
2023-06-19T16:27:10.403Z,24.52
2023-06-19T16:29:37.856Z,24.42
2023-06-19T16:32:10.211Z,24.31
2023-06-19T16:34:39.001Z,24.22
2023-06-19T16:37:06.993Z,24.08
2023-06-19T16:39:34.622Z,23.94
2023-06-19T16:42:04.211Z,23.80
2023-06-19T16:44:31.529Z,23.68
2023-06-19T16:46:59.139Z,23.65
2023-06-19T16:49:26.576Z,23.59
2023-06-19T16:51:53.993Z,23.51
2023-06-19T16:54:21.440Z,23.38
2023-06-19T16:56:48.847Z,23.28
2023-06-19T16:59:17.932Z,23.21
2023-06-19T17:01:46.794Z,23.16
2023-06-19T17:04:14.474Z,23.06
2023-06-19T17:06:41.942Z,22.99
2023-06-19T17:09:09.349Z,22.92
2023-06-19T17:11:40.679Z,22.86
2023-06-19T17:14:10.208Z,22.78
2023-06-19T17:16:39.250Z,22.73
2023-06-19T17:19:06.850Z,22.70
2023-06-19T17:21:34.764Z,22.63
2023-06-19T17:24:02.751Z,22.59
2023-06-19T17:26:30.250Z,22.51
2023-06-19T17:28:57.659Z,22.46
2023-06-19T17:31:25.233Z,22.42
2023-06-19T17:33:55.324Z,22.39
2023-06-19T17:36:22.605Z,22.34
2023-06-19T17:38:49.925Z,22.28
2023-06-19T17:41:17.385Z,22.21
2023-06-19T17:43:45.042Z,22.15
2023-06-19T17:46:13.224Z,22.08
2023-06-19T17:48:42.443Z,22.06
2023-06-19T17:51:11.243Z,21.99
2023-06-19T17:53:40.037Z,21.92
2023-06-19T17:56:07.413Z,21.86
2023-06-19T17:58:35.212Z,21.82
2023-06-19T18:01:02.787Z,21.77
2023-06-19T18:03:31.140Z,21.71
2023-06-19T18:05:58.591Z,21.66
2023-06-19T18:08:27.499Z,21.56
2023-06-19T18:10:55.061Z,21.45
2023-06-19T18:13:22.408Z,21.38
2023-06-19T18:16:02.817Z,21.31
2023-06-19T18:18:37.810Z,21.28
2023-06-19T18:21:05.239Z,21.23
2023-06-19T18:23:34.292Z,21.17
2023-06-19T18:26:01.726Z,21.04
2023-06-19T18:28:29.193Z,20.93
2023-06-19T18:30:56.689Z,20.78
2023-06-19T18:33:24.141Z,20.68
2023-06-19T18:35:51.640Z,20.61
2023-06-19T18:38:19.317Z,20.54
2023-06-19T18:40:49.161Z,20.48
2023-06-19T18:43:16.657Z,20.41
2023-06-19T18:45:44.211Z,20.34
2023-06-19T18:48:11.723Z,20.27
2023-06-19T18:50:39.237Z,20.20
2023-06-19T18:53:08.206Z,20.13
2023-06-19T18:55:39.681Z,20.09
2023-06-19T18:58:09.556Z,20.05
2023-06-19T19:00:37.044Z,19.99
2023-06-19T19:03:05.001Z,19.89
2023-06-19T19:05:33.915Z,19.82
2023-06-19T19:08:01.206Z,19.79
2023-06-19T19:10:28.746Z,19.75
2023-06-19T19:12:56.263Z,19.72
2023-06-19T19:15:25.339Z,19.67
2023-06-19T19:17:53.263Z,19.61
2023-06-19T19:20:20.761Z,19.51
2023-06-19T19:22:48.134Z,19.44
2023-06-19T19:25:15.754Z,19.37
2023-06-19T19:27:43.218Z,19.29
2023-06-19T19:30:11.322Z,19.24
2023-06-19T19:32:40.557Z,19.15
2023-06-19T19:35:09.338Z,19.07
2023-06-19T19:37:36.925Z,19.02
2023-06-19T19:40:05.193Z,18.98
2023-06-19T19:42:33.102Z,18.96
2023-06-19T19:45:00.478Z,18.96
2023-06-19T19:47:27.980Z,18.96
2023-06-19T19:49:56.728Z,18.98
2023-06-19T19:52:25.694Z,18.97
2023-06-19T19:54:53.329Z,18.97
2023-06-19T19:57:20.802Z,18.94
2023-06-19T19:59:48.323Z,18.90
2023-06-19T20:02:15.847Z,18.85
2023-06-19T20:04:43.302Z,18.81
2023-06-19T20:07:12.157Z,18.76
2023-06-19T20:09:39.741Z,18.72
2023-06-19T20:12:20.810Z,18.68
2023-06-19T20:14:49.247Z,18.62
2023-06-19T20:17:17.071Z,18.53
2023-06-19T20:19:44.707Z,18.47
2023-06-19T20:22:13.640Z,18.39
2023-06-19T20:24:41.156Z,18.27
2023-06-19T20:27:08.543Z,18.15
2023-06-19T20:29:35.892Z,18.07
2023-06-19T20:32:03.464Z,17.98
2023-06-19T20:34:30.712Z,17.91
2023-06-19T20:36:58.227Z,17.86
2023-06-19T20:39:27.333Z,17.77
2023-06-19T20:41:54.735Z,17.69
2023-06-19T20:44:22.432Z,17.63
2023-06-19T20:46:50.228Z,17.54
2023-06-19T20:49:17.640Z,17.42
2023-06-19T20:51:45.108Z,17.32
2023-06-19T20:54:12.634Z,17.25
2023-06-19T20:56:41.342Z,17.21
2023-06-19T20:59:08.758Z,17.13
2023-06-19T21:01:36.347Z,17.06
2023-06-19T21:04:03.963Z,17.04
2023-06-19T21:06:31.669Z,17.03
2023-06-19T21:09:00.635Z,17.02
2023-06-19T21:11:28.658Z,17.02
2023-06-19T21:13:57.458Z,17.01
2023-06-19T21:16:25.859Z,16.96
2023-06-19T21:18:53.283Z,16.94
2023-06-19T21:21:20.637Z,16.83
2023-06-19T21:23:48.275Z,16.75
2023-06-19T21:26:16.257Z,16.72
2023-06-19T21:28:43.674Z,16.67
2023-06-19T21:31:14.132Z,16.60
2023-06-19T21:33:42.171Z,16.56
2023-06-19T21:36:09.546Z,16.50
2023-06-19T21:38:37.236Z,16.45
2023-06-19T21:41:04.762Z,16.40
2023-06-19T21:43:32.379Z,16.36
2023-06-19T21:45:59.871Z,16.30
2023-06-19T21:48:29.801Z,16.24
2023-06-19T21:50:57.140Z,16.18
2023-06-19T21:53:24.641Z,16.13
2023-06-19T21:55:52.028Z,16.05
2023-06-19T21:58:19.367Z,15.97
2023-06-19T22:00:46.700Z,15.92
2023-06-19T22:03:14.215Z,15.88
2023-06-19T22:05:43.189Z,15.90
2023-06-19T22:08:10.776Z,15.93
2023-06-19T22:10:38.092Z,15.96
2023-06-19T22:13:05.402Z,15.99
2023-06-19T22:15:32.741Z,16.01
2023-06-19T22:18:02.044Z,16.01
2023-06-19T22:20:29.611Z,16.00
2023-06-19T22:22:58.592Z,16.01
2023-06-19T22:25:25.895Z,15.97
2023-06-19T22:27:55.770Z,15.92
2023-06-19T22:30:23.677Z,15.90
2023-06-19T22:32:51.802Z,15.84
2023-06-19T22:35:19.182Z,15.79
2023-06-19T22:37:47.799Z,15.78
2023-06-19T22:40:17.146Z,15.82
2023-06-19T22:42:44.584Z,15.87
2023-06-19T22:45:12.961Z,15.87
2023-06-19T22:47:41.000Z,15.85
2023-06-19T22:50:09.699Z,15.79
2023-06-19T22:52:38.201Z,15.77
2023-06-19T22:55:06.669Z,15.69
2023-06-19T22:57:37.034Z,15.61
2023-06-19T23:00:14.978Z,15.54
2023-06-19T23:02:45.645Z,15.47
2023-06-19T23:05:14.506Z,15.43
2023-06-19T23:07:42.908Z,15.40
2023-06-19T23:10:11.393Z,15.38
2023-06-19T23:12:40.371Z,15.38
2023-06-19T23:15:08.521Z,15.40
2023-06-19T23:17:39.009Z,15.40
2023-06-19T23:20:12.617Z,15.40
2023-06-19T23:22:40.664Z,15.39
2023-06-19T23:25:09.289Z,15.34
2023-06-19T23:27:36.737Z,15.27
2023-06-19T23:30:07.092Z,15.21
2023-06-19T23:32:34.654Z,15.16
2023-06-19T23:35:02.407Z,15.12
2023-06-19T23:37:31.605Z,15.04
2023-06-19T23:39:59.092Z,15.03
2023-06-19T23:42:26.580Z,15.01
2023-06-19T23:44:54.068Z,14.94
2023-06-19T23:47:22.875Z,14.86
2023-06-19T23:49:50.365Z,14.81
2023-06-19T23:52:23.902Z,14.79
2023-06-19T23:54:57.545Z,14.81
2023-06-19T23:57:24.914Z,14.83
2023-06-19T23:59:52.247Z,14.84
